createdAt,value
2018-07-01T00:02:09.175Z,0.93
2018-07-01T00:04:37.488Z,1.03
2018-07-01T00:07:06.261Z,1.13
2018-07-01T00:09:34.654Z,0.97
2018-07-01T00:12:02.936Z,0.83
2018-07-01T00:14:31.076Z,1.10
2018-07-01T00:17:00.333Z,1.00
2018-07-01T00:19:28.766Z,0.97
2018-07-01T00:21:56.926Z,1.03
2018-07-01T00:24:25.063Z,0.90
2018-07-01T00:26:53.856Z,0.93
2018-07-01T00:29:22.059Z,0.97
2018-07-01T00:31:50.322Z,1.00
2018-07-01T00:34:18.579Z,1.13
2018-07-01T00:36:47.739Z,1.00
2018-07-01T00:39:15.884Z,0.93
2018-07-01T00:41:44.062Z,0.83
2018-07-01T00:44:12.177Z,1.00
2018-07-01T00:46:40.419Z,0.80
2018-07-01T00:49:08.576Z,0.87
2018-07-01T00:51:36.820Z,0.80
2018-07-01T00:54:05.837Z,0.90
2018-07-01T00:56:34.478Z,1.00
2018-07-01T00:59:03.127Z,1.20
2018-07-01T01:01:31.492Z,1.17
2018-07-01T01:03:59.691Z,1.07
2018-07-01T01:06:27.881Z,0.80
2018-07-01T01:08:56.008Z,1.00
2018-07-01T01:11:24.715Z,1.10
2018-07-01T01:13:52.889Z,0.80
2018-07-01T01:16:21.161Z,1.23
2018-07-01T01:18:49.446Z,0.90
2018-07-01T01:21:17.597Z,0.90
2018-07-01T01:23:45.796Z,0.80
2018-07-01T01:26:14.069Z,1.00
2018-07-01T01:28:42.249Z,0.93
2018-07-01T01:31:10.432Z,1.20
2018-07-01T01:33:38.795Z,0.90
2018-07-01T01:36:07.563Z,1.00
2018-07-01T01:38:37.777Z,1.43
2018-07-01T01:41:09.782Z,0.83
2018-07-01T01:43:44.711Z,1.10
2018-07-01T01:46:18.905Z,0.90
2018-07-01T01:48:55.521Z,1.00
2018-07-01T01:51:28.871Z,0.90
2018-07-01T01:54:02.458Z,0.80
2018-07-01T01:56:35.828Z,1.10
2018-07-01T01:59:22.726Z,0.80
2018-07-01T02:02:01.974Z,0.90
2018-07-01T02:04:34.333Z,0.80
2018-07-01T02:07:07.280Z,0.90
2018-07-01T02:09:36.765Z,0.87
2018-07-01T02:12:07.385Z,0.80
2018-07-01T02:15:09.711Z,0.87
2018-07-01T02:17:41.392Z,0.93
2018-07-01T02:20:10.404Z,1.07
2018-07-01T02:22:44.445Z,1.00
2018-07-01T02:25:16.309Z,1.00
2018-07-01T02:27:44.540Z,0.80
2018-07-01T02:30:13.516Z,0.77
2018-07-01T02:32:41.777Z,0.97
2018-07-01T02:35:09.928Z,0.80
2018-07-01T02:37:38.185Z,0.73
2018-07-01T02:40:06.732Z,1.10
2018-07-01T02:42:34.873Z,0.90
2018-07-01T02:45:03.051Z,0.90
2018-07-01T02:47:31.214Z,0.90
2018-07-01T02:49:59.363Z,0.80
2018-07-01T02:52:27.564Z,0.83
2018-07-01T02:54:56.253Z,0.73
2018-07-01T02:57:24.383Z,0.70
2018-07-01T02:59:53.204Z,0.80
2018-07-01T03:02:21.383Z,0.80
2018-07-01T03:04:49.533Z,1.37
2018-07-01T03:07:17.746Z,0.70
2018-07-01T03:09:45.912Z,0.80
2018-07-01T03:12:14.152Z,0.80
2018-07-01T03:14:42.330Z,0.80
2018-07-01T03:17:10.621Z,0.80
2018-07-01T03:19:38.820Z,0.90
2018-07-01T03:22:07.083Z,1.00
2018-07-01T03:24:35.231Z,0.80
2018-07-01T03:27:03.455Z,1.10
2018-07-01T03:29:32.310Z,0.77
2018-07-01T03:32:00.699Z,0.77
2018-07-01T03:34:29.058Z,0.87
2018-07-01T03:36:57.356Z,0.90
2018-07-01T03:39:26.347Z,0.90
2018-07-01T03:41:54.513Z,0.80
2018-07-01T03:44:22.712Z,0.80
2018-07-01T03:46:51.083Z,1.13
2018-07-01T03:49:19.268Z,0.70
2018-07-01T03:51:48.017Z,1.07
2018-07-01T03:54:16.813Z,0.90
2018-07-01T03:56:45.024Z,0.93
2018-07-01T03:59:13.912Z,1.00
2018-07-01T04:01:42.473Z,1.00
2018-07-01T04:04:10.874Z,1.00
2018-07-01T04:06:39.111Z,0.90
2018-07-01T04:09:07.791Z,1.00
2018-07-01T04:11:35.968Z,1.00
2018-07-01T04:14:04.124Z,1.10
2018-07-01T04:16:32.338Z,1.10
2018-07-01T04:19:01.363Z,0.90
2018-07-01T04:21:30.020Z,1.00
2018-07-01T04:23:58.197Z,0.83
2018-07-01T04:26:26.422Z,1.23
2018-07-01T04:28:55.414Z,0.77
2018-07-01T04:31:23.606Z,1.10
2018-07-01T04:33:51.780Z,0.70
2018-07-01T04:36:20.269Z,0.70
2018-07-01T04:38:49.854Z,0.70
2018-07-01T04:41:18.126Z,0.90
2018-07-01T04:43:46.336Z,0.90
2018-07-01T04:46:15.113Z,1.00
2018-07-01T04:48:43.677Z,0.85
2018-07-01T04:51:11.863Z,0.80
2018-07-01T04:53:40.032Z,0.90
2018-07-01T04:56:08.226Z,0.80
2018-07-01T04:58:36.374Z,0.70
2018-07-01T05:01:04.611Z,1.00
2018-07-01T05:03:32.732Z,0.78
2018-07-01T05:06:01.449Z,0.70
2018-07-01T05:08:29.611Z,0.80
2018-07-01T05:10:57.758Z,0.60
2018-07-01T05:13:26.647Z,0.90
2018-07-01T05:15:54.808Z,0.70
2018-07-01T05:18:23.824Z,0.50
2018-07-01T05:20:51.989Z,0.70
2018-07-01T05:23:20.188Z,0.70
2018-07-01T05:25:48.447Z,0.90
2018-07-01T05:28:17.976Z,0.68
2018-07-01T05:30:46.127Z,0.50
2018-07-01T05:33:14.302Z,0.60
2018-07-01T05:35:42.487Z,0.80
2018-07-01T05:38:10.657Z,0.70
2018-07-01T05:40:38.830Z,0.72
2018-07-01T05:43:06.982Z,0.65
2018-07-01T05:45:35.166Z,0.70
2018-07-01T05:48:03.417Z,0.60
2018-07-01T05:50:31.716Z,0.72
2018-07-01T05:52:59.909Z,0.53
2018-07-01T05:55:28.702Z,0.60
2018-07-01T05:57:56.839Z,0.50
2018-07-01T06:00:25.251Z,0.60
2018-07-01T06:02:54.064Z,0.50
2018-07-01T06:05:22.198Z,0.60
2018-07-01T06:07:50.935Z,0.70
2018-07-01T06:10:19.081Z,0.57
2018-07-01T06:12:48.156Z,0.70
2018-07-01T06:15:16.586Z,0.50
2018-07-01T06:17:44.734Z,0.53
2018-07-01T06:20:12.882Z,0.50
2018-07-01T06:22:41.048Z,0.50
2018-07-01T06:25:09.205Z,0.60
2018-07-01T06:27:37.430Z,0.50
2018-07-01T06:30:06.073Z,0.47
2018-07-01T06:32:34.269Z,0.50
2018-07-01T06:35:02.440Z,0.57
2018-07-01T06:37:30.589Z,0.70
2018-07-01T06:39:59.398Z,0.60
2018-07-01T06:42:27.651Z,0.60
2018-07-01T06:44:55.872Z,0.50
2018-07-01T06:47:24.052Z,0.60
2018-07-01T06:49:52.222Z,0.80
2018-07-01T06:52:20.399Z,0.60
2018-07-01T06:54:48.656Z,0.60
2018-07-01T06:57:16.843Z,0.73
2018-07-01T06:59:45.955Z,0.60
2018-07-01T07:02:14.335Z,0.63
2018-07-01T07:04:42.484Z,0.50
2018-07-01T07:07:11.473Z,0.50
2018-07-01T07:09:40.249Z,0.63
2018-07-01T07:12:09.249Z,0.50
2018-07-01T07:14:37.467Z,0.50
2018-07-01T07:17:05.776Z,0.60
2018-07-01T07:19:33.941Z,0.50
2018-07-01T07:22:02.061Z,0.53
2018-07-01T07:24:30.385Z,0.50
2018-07-01T07:26:59.011Z,0.73
2018-07-01T07:29:27.168Z,0.50
2018-07-01T07:31:55.478Z,0.50
2018-07-01T07:34:23.744Z,0.70
2018-07-01T07:36:52.003Z,0.60
2018-07-01T07:39:20.170Z,0.50
2018-07-01T07:41:48.428Z,0.60
2018-07-01T07:44:17.233Z,0.77
2018-07-01T07:46:45.519Z,0.40
2018-07-01T07:49:13.663Z,0.63
2018-07-01T07:51:41.836Z,0.50
2018-07-01T07:54:10.198Z,0.40
2018-07-01T07:56:39.480Z,0.50
2018-07-01T07:59:08.311Z,0.43
2018-07-01T08:01:37.041Z,0.40
2018-07-01T08:04:05.255Z,0.40
2018-07-01T08:06:33.470Z,0.43
2018-07-01T08:09:01.636Z,0.50
2018-07-01T08:11:29.823Z,0.50
2018-07-01T08:13:57.964Z,0.40
2018-07-01T08:16:26.283Z,0.47
2018-07-01T08:18:54.586Z,0.40
2018-07-01T08:21:22.745Z,0.47
2018-07-01T08:23:51.056Z,0.50
2018-07-01T08:26:19.289Z,0.70
2018-07-01T08:28:47.478Z,0.60
2018-07-01T08:31:16.443Z,0.47
2018-07-01T08:33:44.602Z,0.40
2018-07-01T08:36:12.964Z,0.40
2018-07-01T08:38:41.731Z,0.33
2018-07-01T08:41:11.408Z,0.50
2018-07-01T08:43:39.800Z,0.60
2018-07-01T08:46:07.928Z,0.40
2018-07-01T08:48:36.148Z,0.40
2018-07-01T08:51:04.882Z,0.53
2018-07-01T08:53:33.175Z,0.40
2018-07-01T08:56:02.902Z,0.50
2018-07-01T08:58:31.057Z,0.40
2018-07-01T09:00:59.245Z,0.60
2018-07-01T09:03:27.398Z,0.47
2018-07-01T09:05:55.561Z,0.43
2018-07-01T09:08:24.682Z,0.43
2018-07-01T09:10:52.913Z,0.30
2018-07-01T09:13:21.115Z,0.43
2018-07-01T09:15:49.903Z,0.50
2018-07-01T09:18:18.097Z,0.40
2018-07-01T09:20:46.430Z,0.43
2018-07-01T09:23:14.642Z,0.60
2018-07-01T09:25:42.791Z,0.50
2018-07-01T09:28:10.991Z,0.40
2018-07-01T09:30:39.168Z,0.30
2018-07-01T09:33:07.431Z,0.40
2018-07-01T09:35:35.598Z,0.40
2018-07-01T09:38:04.275Z,0.70
2018-07-01T09:40:32.556Z,0.33
2018-07-01T09:43:00.705Z,0.40
2018-07-01T09:45:29.477Z,0.33
2018-07-01T09:47:57.695Z,0.60
2018-07-01T09:50:26.136Z,0.57
2018-07-01T09:52:56.072Z,0.40
2018-07-01T09:55:24.234Z,0.40
2018-07-01T09:57:52.455Z,0.50
2018-07-01T10:00:20.614Z,0.70
2018-07-01T10:02:48.805Z,0.50
2018-07-01T10:05:16.958Z,0.57
2018-07-01T10:07:45.277Z,0.50
2018-07-01T10:10:13.433Z,0.30
2018-07-01T10:12:41.799Z,0.40
2018-07-01T10:15:10.586Z,0.50
2018-07-01T10:17:38.853Z,0.50
2018-07-01T10:20:07.263Z,0.47
2018-07-01T10:22:35.992Z,0.73
2018-07-01T10:25:04.125Z,0.70
2018-07-01T10:27:32.275Z,0.50
2018-07-01T10:30:00.629Z,0.50
2018-07-01T10:32:28.815Z,0.40
2018-07-01T10:34:56.992Z,0.63
2018-07-01T10:37:25.190Z,0.50
2018-07-01T10:39:53.869Z,0.60
2018-07-01T10:42:22.033Z,0.50
2018-07-01T10:44:51.540Z,0.57
2018-07-01T10:47:19.761Z,0.47
2018-07-01T10:49:47.978Z,0.37
2018-07-01T10:52:16.246Z,0.40
2018-07-01T10:54:44.434Z,0.47
2018-07-01T10:57:12.615Z,0.50
2018-07-01T10:59:41.593Z,0.40
2018-07-01T11:02:11.430Z,0.63
2018-07-01T11:04:39.707Z,0.60
2018-07-01T11:07:08.089Z,0.57
2018-07-01T11:09:36.458Z,0.70
2018-07-01T11:12:04.814Z,0.50
2018-07-01T11:14:33.102Z,0.60
2018-07-01T11:17:01.270Z,0.53
2018-07-01T11:19:30.104Z,0.50
2018-07-01T11:21:59.487Z,0.70
2018-07-01T11:24:27.919Z,0.47
2018-07-01T11:26:56.290Z,0.70
2018-07-01T11:29:25.104Z,0.60
2018-07-01T11:31:53.392Z,0.50
2018-07-01T11:34:21.530Z,0.60
2018-07-01T11:36:49.876Z,0.43
2018-07-01T11:39:17.998Z,0.30
2018-07-01T11:41:46.695Z,0.50
2018-07-01T11:44:14.887Z,0.40
2018-07-01T11:46:43.086Z,0.50
2018-07-01T11:49:11.981Z,0.40
2018-07-01T11:51:40.704Z,0.40
2018-07-01T11:54:08.900Z,0.43
2018-07-01T11:56:37.069Z,0.40
2018-07-01T11:59:05.775Z,0.50
2018-07-01T12:01:34.570Z,0.70
2018-07-01T12:04:04.064Z,0.37
2018-07-01T12:06:32.429Z,0.53
2018-07-01T12:09:01.155Z,0.40
2018-07-01T12:11:29.744Z,0.43
2018-07-01T12:13:59.076Z,0.40
2018-07-01T12:16:27.291Z,0.50
2018-07-01T12:18:56.346Z,0.40
2018-07-01T12:21:24.643Z,0.30
2018-07-01T12:23:52.835Z,0.30
2018-07-01T12:26:21.054Z,0.40
2018-07-01T12:28:49.633Z,0.50
2018-07-01T12:31:17.835Z,0.30
2018-07-01T12:33:46.025Z,0.40
2018-07-01T12:36:14.305Z,0.40
2018-07-01T12:38:43.002Z,0.33
2018-07-01T12:41:11.706Z,0.40
2018-07-01T12:43:39.885Z,0.40
2018-07-01T12:46:08.559Z,0.50
2018-07-01T12:48:36.832Z,0.70
2018-07-01T12:51:05.393Z,0.70
2018-07-01T12:53:33.562Z,0.33
2018-07-01T12:56:01.736Z,0.60
2018-07-01T12:58:29.897Z,0.70
2018-07-01T13:00:58.065Z,0.60
2018-07-01T13:03:27.117Z,0.63
2018-07-01T13:05:55.323Z,0.40
2018-07-01T13:08:23.632Z,0.57
2018-07-01T13:10:52.037Z,0.47
2018-07-01T13:13:20.406Z,0.60
2018-07-01T13:15:48.576Z,0.60
2018-07-01T13:18:16.836Z,0.57
2018-07-01T13:20:44.996Z,0.50
2018-07-01T13:23:13.229Z,0.57
2018-07-01T13:25:41.366Z,0.40
2018-07-01T13:28:09.570Z,0.40
2018-07-01T13:30:37.827Z,0.70
2018-07-01T13:33:05.956Z,0.50
2018-07-01T13:35:34.198Z,0.50
2018-07-01T13:38:02.431Z,0.63
2018-07-01T13:40:30.592Z,0.40
2018-07-01T13:42:59.498Z,0.47
2018-07-01T13:45:27.725Z,0.50
2018-07-01T13:47:55.966Z,0.77
2018-07-01T13:50:24.124Z,0.50
2018-07-01T13:52:52.936Z,0.40
2018-07-01T13:55:21.123Z,0.60
2018-07-01T13:57:49.459Z,0.60
2018-07-01T14:00:17.819Z,0.53
2018-07-01T14:02:46.742Z,0.60
2018-07-01T14:05:15.097Z,0.30
2018-07-01T14:07:43.298Z,0.40
2018-07-01T14:10:11.586Z,0.50
2018-07-01T14:12:40.485Z,0.57
2018-07-01T14:15:08.620Z,0.50
2018-07-01T14:17:37.119Z,0.60
2018-07-01T14:20:06.774Z,0.70
2018-07-01T14:22:35.720Z,0.40
2018-07-01T14:25:04.092Z,0.40
2018-07-01T14:27:33.382Z,0.43
2018-07-01T14:30:01.845Z,0.60
2018-07-01T14:32:30.030Z,0.63
2018-07-01T14:34:58.728Z,0.33
2018-07-01T14:37:27.045Z,0.40
2018-07-01T14:39:55.199Z,0.43
2018-07-01T14:42:23.474Z,0.40
2018-07-01T14:44:52.259Z,0.70
2018-07-01T14:47:20.413Z,0.40
2018-07-01T14:49:48.677Z,0.40
2018-07-01T14:52:16.862Z,0.70
2018-07-01T14:54:45.051Z,0.40
2018-07-01T14:57:13.205Z,0.43
2018-07-01T14:59:41.389Z,0.40
2018-07-01T15:02:09.537Z,0.67
2018-07-01T15:04:37.822Z,0.77
2018-07-01T15:07:06.737Z,0.60
2018-07-01T15:09:35.093Z,0.50
2018-07-01T15:12:03.416Z,0.50
2018-07-01T15:14:31.569Z,0.70
2018-07-01T15:16:59.724Z,0.50
2018-07-01T15:19:28.137Z,0.30
2018-07-01T15:21:56.269Z,0.60
2018-07-01T15:24:25.025Z,0.50
2018-07-01T15:26:53.239Z,0.50
2018-07-01T15:29:21.411Z,0.40
2018-07-01T15:31:50.443Z,0.50
2018-07-01T15:34:18.837Z,0.40
2018-07-01T15:36:46.974Z,0.60
2018-07-01T15:39:16.530Z,0.40
2018-07-01T15:41:46.206Z,0.40
2018-07-01T15:44:14.476Z,0.33
2018-07-01T15:46:42.630Z,0.70
2018-07-01T15:49:11.611Z,0.53
2018-07-01T15:51:39.835Z,0.37
2018-07-01T15:54:08.742Z,0.40
2018-07-01T15:56:36.881Z,0.40
2018-07-01T15:59:05.123Z,0.47
2018-07-01T16:01:33.298Z,0.40
2018-07-01T16:04:01.568Z,0.50
2018-07-01T16:06:29.953Z,0.40
2018-07-01T16:08:58.130Z,0.40
2018-07-01T16:11:26.363Z,0.47
2018-07-01T16:13:54.637Z,0.50
2018-07-01T16:16:22.957Z,0.50
2018-07-01T16:18:51.143Z,0.67
2018-07-01T16:21:19.502Z,0.50
2018-07-01T16:23:48.708Z,0.60
2018-07-01T16:27:21.923Z,0.60
2018-07-01T16:29:50.058Z,0.40
2018-07-01T16:32:18.247Z,0.40
2018-07-01T16:34:46.559Z,0.50
2018-07-01T16:37:14.783Z,0.50
2018-07-01T16:39:43.597Z,0.40
2018-07-01T16:42:12.455Z,0.30
2018-07-01T16:44:41.295Z,0.60
2018-07-01T16:47:09.555Z,0.40
2018-07-01T16:49:37.739Z,0.60
2018-07-01T16:52:06.005Z,0.53
2018-07-01T16:54:34.814Z,0.40
2018-07-01T16:57:03.166Z,0.40
2018-07-01T16:59:31.570Z,0.50
2018-07-01T17:01:59.725Z,0.60
2018-07-01T17:04:28.410Z,0.50
2018-07-01T17:06:56.580Z,0.50
2018-07-01T17:09:25.710Z,0.40
2018-07-01T17:11:54.049Z,0.40
2018-07-01T17:14:22.195Z,0.30
2018-07-01T17:16:50.391Z,0.50
2018-07-01T17:19:19.082Z,0.57
2018-07-01T17:21:47.241Z,0.60
2018-07-01T17:24:16.209Z,0.47
2018-07-01T17:26:44.363Z,0.40
2018-07-01T17:29:13.514Z,0.50
2018-07-01T17:31:47.684Z,0.40
2018-07-01T17:34:16.017Z,0.50
2018-07-01T17:36:44.181Z,0.42
2018-07-01T17:39:12.398Z,0.40
2018-07-01T17:41:40.764Z,0.50
2018-07-01T17:44:09.250Z,0.40
2018-07-01T17:46:37.366Z,0.50
2018-07-01T17:49:05.871Z,0.50
2018-07-01T17:51:34.470Z,0.45
2018-07-01T17:54:02.839Z,0.47
2018-07-01T17:56:31.109Z,0.37
2018-07-01T17:58:59.978Z,0.40
2018-07-01T18:01:28.297Z,0.40
2018-07-01T18:03:57.204Z,0.50
2018-07-01T18:06:25.659Z,0.35
2018-07-01T18:08:54.538Z,0.50
2018-07-01T18:11:22.723Z,0.50
2018-07-01T18:13:51.071Z,0.40
2018-07-01T18:16:20.239Z,0.45
2018-07-01T18:18:48.341Z,0.50
2018-07-01T18:21:20.995Z,0.28
2018-07-01T18:24:11.125Z,0.40
2018-07-01T18:26:13.766Z,0.30
2018-07-01T18:28:52.295Z,0.30
2018-07-01T18:31:10.299Z,0.50
2018-07-01T18:33:39.266Z,0.42
2018-07-01T18:36:07.514Z,0.68
2018-07-01T18:38:36.679Z,0.40
2018-07-01T18:41:05.503Z,0.40
2018-07-01T18:43:33.933Z,0.42
2018-07-01T18:46:02.124Z,0.37
2018-07-01T18:48:30.343Z,0.40
2018-07-01T18:50:59.100Z,0.30
2018-07-01T18:53:27.287Z,0.70
2018-07-01T18:55:55.468Z,0.60
2018-07-01T18:58:24.135Z,0.67
2018-07-01T19:00:52.325Z,0.80
2018-07-01T19:03:20.995Z,1.20
2018-07-01T19:05:49.215Z,1.10
2018-07-01T19:08:17.692Z,1.00
2018-07-01T19:10:46.269Z,1.27
2018-07-01T19:13:14.481Z,1.30
2018-07-01T19:15:42.765Z,1.60
2018-07-01T19:18:11.192Z,1.13
2018-07-01T19:20:39.483Z,1.40
2018-07-01T19:23:08.285Z,1.37
2018-07-01T19:25:37.114Z,1.40
2018-07-01T19:28:06.227Z,1.30
2018-07-01T19:30:35.267Z,1.27
2018-07-01T19:33:03.413Z,1.17
2018-07-01T19:35:31.631Z,1.20
2018-07-01T19:37:59.952Z,1.10
2018-07-01T19:40:28.734Z,0.93
2018-07-01T19:42:57.276Z,1.20
2018-07-01T19:45:25.417Z,1.30
2018-07-01T19:47:54.406Z,1.10
2018-07-01T19:50:22.841Z,1.20
2018-07-01T19:52:51.273Z,1.23
2018-07-01T19:55:20.169Z,1.10
2018-07-01T19:57:48.465Z,1.00
2018-07-01T20:00:16.796Z,1.10
2018-07-01T20:02:45.086Z,0.90
2018-07-01T20:05:13.972Z,1.10
2018-07-01T20:07:42.818Z,1.10
2018-07-01T20:10:11.618Z,0.80
2018-07-01T20:12:39.845Z,0.90
2018-07-01T20:15:08.201Z,0.90
2018-07-01T20:17:36.371Z,0.80
2018-07-01T20:20:04.630Z,0.87
2018-07-01T20:22:33.457Z,0.90
2018-07-01T20:25:01.615Z,0.87
2018-07-01T20:27:29.862Z,0.70
2018-07-01T20:29:58.055Z,1.00
2018-07-01T20:32:26.360Z,0.97
2018-07-01T20:34:54.709Z,0.80
2018-07-01T20:37:23.072Z,0.80
2018-07-01T20:39:51.299Z,0.70
2018-07-01T20:42:20.764Z,0.60
2018-07-01T20:44:49.513Z,0.63
2018-07-01T20:47:17.715Z,0.70
2018-07-01T20:49:45.949Z,0.60
2018-07-01T20:52:14.878Z,0.70
2018-07-01T20:54:43.054Z,0.70
2018-07-01T20:57:11.253Z,0.60
2018-07-01T20:59:39.916Z,0.70
2018-07-01T21:02:09.060Z,0.83
2018-07-01T21:04:37.206Z,0.70
2018-07-01T21:07:05.547Z,0.83
2018-07-01T21:09:33.767Z,0.60
2018-07-01T21:12:01.898Z,0.60
2018-07-01T21:14:30.078Z,0.80
2018-07-01T21:16:58.275Z,0.60
2018-07-01T21:19:26.488Z,0.50
2018-07-01T21:21:54.628Z,0.83
2018-07-01T21:24:23.417Z,0.70
2018-07-01T21:26:51.718Z,0.70
2018-07-01T21:29:19.868Z,0.60
2018-07-01T21:31:48.628Z,0.87
2018-07-01T21:34:16.799Z,0.60
2018-07-01T21:36:44.986Z,0.47
2018-07-01T21:39:13.359Z,0.60
2018-07-01T21:41:41.758Z,0.77
2018-07-01T21:44:10.064Z,0.60
2018-07-01T21:46:38.501Z,0.60
2018-07-01T21:49:07.351Z,0.60
2018-07-01T21:51:36.158Z,0.50
2018-07-01T21:54:04.575Z,0.50
2018-07-01T21:56:32.971Z,0.70
2018-07-01T21:59:01.155Z,0.60
2018-07-01T22:01:29.895Z,0.63
2018-07-01T22:03:58.151Z,0.80
2018-07-01T22:06:30.685Z,0.80
2018-07-01T22:08:58.833Z,0.80
2018-07-01T22:11:46.068Z,0.70
2018-07-01T22:14:17.957Z,0.60
2018-07-01T22:16:47.001Z,0.60
2018-07-01T22:19:16.469Z,0.70
2018-07-01T22:21:45.485Z,0.80
2018-07-01T22:24:14.511Z,0.57
2018-07-01T22:26:43.180Z,0.60
2018-07-01T22:29:12.801Z,0.90
2018-07-01T22:31:41.098Z,0.50
2018-07-01T22:34:11.191Z,0.70
2018-07-01T22:36:39.585Z,0.60
2018-07-01T22:39:09.013Z,0.63
2018-07-01T22:41:37.926Z,0.67
2018-07-01T22:44:06.230Z,0.70
2018-07-01T22:46:35.568Z,0.50
2018-07-01T22:49:03.757Z,0.60
2018-07-01T22:51:32.814Z,0.40
2018-07-01T22:54:01.065Z,0.50
2018-07-01T22:56:29.680Z,0.50
2018-07-01T22:58:57.895Z,0.67
2018-07-01T23:01:27.036Z,0.60
2018-07-01T23:03:55.217Z,0.67
2018-07-01T23:06:23.490Z,0.70
2018-07-01T23:08:51.670Z,0.50
2018-07-01T23:11:19.939Z,0.70
2018-07-01T23:13:48.129Z,0.60
2018-07-01T23:16:16.381Z,0.53
2018-07-01T23:18:44.558Z,0.70
2018-07-01T23:21:13.129Z,0.50
2018-07-01T23:23:41.424Z,0.43
2018-07-01T23:26:09.562Z,0.80
2018-07-01T23:28:38.625Z,0.60
2018-07-01T23:31:06.847Z,0.77
2018-07-01T23:33:35.661Z,0.60
2018-07-01T23:36:03.819Z,0.40
2018-07-01T23:38:32.038Z,0.40
2018-07-01T23:41:00.377Z,0.47
2018-07-01T23:43:29.353Z,0.60
2018-07-01T23:45:57.525Z,0.40
2018-07-01T23:48:26.277Z,0.50
2018-07-01T23:50:55.713Z,0.50
2018-07-01T23:53:23.847Z,0.40
2018-07-01T23:55:51.999Z,0.60
2018-07-01T23:58:20.161Z,0.47
